Terminal Aerodrome Forecast
Issued by NWS

Current Version | Previous Version | Text Only | Print | Product List | Glossary On
Versions: 1 2 3 4 5 6 7 8 9 10 11 12 13 14 15 16 17 18 19 20 21 22 23 24 25 26 27 28 29 30 31 32 33 34 35 36 37
000
FTUS45 KGJT 221650 AAA
TAFDRO
TAF AMD
KDRO 221650Z 2217/2312 11007KT P6SM VCSH FEW015 BKN025 OVC045
     FM221800 10007KT P6SM SCT030 BKN070
     FM221900 22007KT P6SM SCT080 SCT200
     FM230200 05004KT P6SM SCT100
     FM230600 01005KT P6SM SCT150=

USA.gov is the U.S. government's official web portal to all federal, state and local government web resources and services.